Cincinnati, Ohio
Traffic Map
Current Weather Conditions
Cincinnati, Ohio
Scattered Clouds
Scattered Clouds
29°
Feels Like: 23°
Wind Chill: 23° Ceiling: Unl
Heat Index: 29° Visibility: 10mi
Dew Point: 18° Wind: 6mph
Humidity: 64% Direction: ° ()
Pressure: 29.9in Gusts: 0mph
Raw Report DataKLUK 261953Z VRB05KT 10SM SCT027 M02/M08 A2990 RMK AO2 SLP130 T10171078
Traffic Incident Summary
Active as of:
Severity:
Category:
InformationThere was an issue retrieving the traffic information for this location. Please try a different location or try again shortly.
Advertisements
Track Severe Weather on mobile